Nippon Maru II — JFMC — position and weather

sailwx.info

Track history (hours):
 
Tides and Currents Weather Stations Pressure Air Temp Water Temp Dewpoint Dewpoint Depression Visibility Wind Speed Wind Dir Waves Ship Positions

Nippon Maru II (Japan)

Build in 1984. Trains merchant marine cadets for Japan's National Institute for Sea Training.

Ship's website: http://www.kohkun.go.jp/en/ships/index.html

Last reported at 2019-Feb-07 23:03 UTC. Time now 2019-Feb-16 03:01 UTC.
Position N 35°39' E 139°46'.
Warning: this ship's position is 8 days out of date.

Length 110.1 m; beam 13.8 m; draft 110.09 m.

Type: Other ship. MMSI: 431498000.

Date/timePositionNaut miles runAvg speedWind from/ knotsBaromVisibWave heightAir tempDewpointWater temp
2019-Feb-07 23:03N 35°39' E 139°46'2 5.3
2019-Feb-07 22:41N 35°37' E 139°46'2 8.8
2019-Feb-07 22:25N 35°35' E 139°47'4 8.6
2019-Feb-07 21:55N 35°33' E 139°52'0 0.0
2019-Feb-07 03:00N 35°33' E 139°53'0 0.0
2019-Feb-07 02:03N 35°33' E 139°53'0 0.0
2019-Feb-06 18:36N 35°34' E 139°53'0 0.0
2019-Feb-06 17:30N 35°34' E 139°53'0 0.0
2019-Feb-06 16:09N 35°34' E 139°53'0 0.0
2019-Feb-06 05:03N 35°33' E 139°53'0 0.0
2019-Feb-06 04:09N 35°33' E 139°53'0 0.0
2019-Feb-05 19:00N 35°33' E 139°53'0 0.0
2019-Feb-05 08:54N 35°34' E 139°53'0 0.0
2019-Feb-05 07:09N 35°34' E 139°53'1 0.1
2019-Feb-04 21:50N 35°33' E 139°53'3 6.3
2019-Feb-04 21:24N 35°30' E 139°54'410.1
2019-Feb-04 21:00N 35°27' E 139°50'5 9.8
2019-Feb-04 20:30N 35°24' E 139°46'5 9.7
2019-Feb-04 20:00N 35°19' E 139°44'5 9.9
2019-Feb-04 19:30N 35°15' E 139°47'5 9.7
2019-Feb-04 18:59N 35°10' E 139°47'6 9.9
2019-Feb-04 18:23N 35°04' E 139°44'  
Track history (hours):
 
Tides and Currents Weather Stations Pressure Air Temp Water Temp Dewpoint Dewpoint Depression Visibility Wind Speed Wind Dir Waves Ship Positions

Nippon Maru II (Japan)

Build in 1984. Trains merchant marine cadets for Japan's National Institute for Sea Training.

Ship's website: http://www.kohkun.go.jp/en/ships/index.html

Last reported at 2019-Feb-07 23:03 UTC. Time now 2019-Feb-16 03:01 UTC.
Position N 35°39' E 139°46'.
Warning: this ship's position is 8 days out of date.

Length 110.1 m; beam 13.8 m; draft 110.09 m.

Type: Other ship. MMSI: 431498000.

Date/timePositionNaut miles runAvg speedWind from/ knotsBaromVisibWave heightAir tempDewpointWater temp
2019-Feb-07 23:03N 35°39' E 139°46'2 5.3
2019-Feb-07 22:41N 35°37' E 139°46'2 8.8
2019-Feb-07 22:25N 35°35' E 139°47'4 8.6
2019-Feb-07 21:55N 35°33' E 139°52'0 0.0
2019-Feb-07 03:00N 35°33' E 139°53'0 0.0
2019-Feb-07 02:03N 35°33' E 139°53'0 0.0
2019-Feb-06 18:36N 35°34' E 139°53'0 0.0
2019-Feb-06 17:30N 35°34' E 139°53'0 0.0
2019-Feb-06 16:09N 35°34' E 139°53'0 0.0
2019-Feb-06 05:03N 35°33' E 139°53'0 0.0
2019-Feb-06 04:09N 35°33' E 139°53'0 0.0
2019-Feb-05 19:00N 35°33' E 139°53'0 0.0
2019-Feb-05 08:54N 35°34' E 139°53'0 0.0
2019-Feb-05 07:09N 35°34' E 139°53'1 0.1
2019-Feb-04 21:50N 35°33' E 139°53'3 6.3
2019-Feb-04 21:24N 35°30' E 139°54'410.1
2019-Feb-04 21:00N 35°27' E 139°50'5 9.8
2019-Feb-04 20:30N 35°24' E 139°46'5 9.7
2019-Feb-04 20:00N 35°19' E 139°44'5 9.9
2019-Feb-04 19:30N 35°15' E 139°47'5 9.7
2019-Feb-04 18:59N 35°10' E 139°47'6 9.9
2019-Feb-04 18:23N 35°04' E 139°44'  

Dump ship's entire track history